Maersk Missouri — WAHV — position and weather

sailwx.info

Track history (hours):
 
Tides and Currents Weather Stations Pressure Air Temp Water Temp Dewpoint Dewpoint Depression Visibility Wind Speed Wind Dir Waves Ship Positions

Maersk Missouri

Owner: MAERSK LINE, LIMITED, Norfolk, VA. More information available from US FCC via Universal Licensing System and Coast Guard Vessel Documentation Center.

Last reported at 2016-Apr-29 01:33 UTC. Time now 2016-Apr-29 02:00 UTC.
Position N 51°57' E 004°00'.

Type: Cargo ship. MMSI: 369708000.

Date/timePositionNaut miles runAvg speedWind from/ knotsBaromVisibWave heightAir tempDewpointWater temp
2016-Apr-29 01:33N 51°57' E 004°00'0 0.0
2016-Apr-29 00:31N 51°57' E 004°00'0 0.0
2016-Apr-28 23:32N 51°57' E 004°00'0 0.0
2016-Apr-28 22:32N 51°57' E 004°00'0 0.0
2016-Apr-28 21:33N 51°57' E 004°00'0 0.0
2016-Apr-28 20:31N 51°57' E 004°00'0 0.0
2016-Apr-28 19:31N 51°57' E 004°00'0 0.0
2016-Apr-28 18:32N 51°57' E 004°00'0 0.0
2016-Apr-28 17:33N 51°57' E 004°00'0 0.0
2016-Apr-28 16:33N 51°57' E 004°00'0 0.0
2016-Apr-28 15:31N 51°57' E 004°00'0 0.0
2016-Apr-28 14:32N 51°57' E 004°00'0 0.0
2016-Apr-28 13:32N 51°57' E 004°00'0 0.0
2016-Apr-28 12:33N 51°57' E 004°00'0 0.0
2016-Apr-28 11:34N 51°57' E 004°00'0 0.0
2016-Apr-28 10:33N 51°57' E 004°00'0 0.0
2016-Apr-28 09:34N 51°57' E 004°00'0 0.0
2016-Apr-28 08:33N 51°57' E 004°00'0 0.0
2016-Apr-28 07:34N 51°57' E 004°00'0 0.0
2016-Apr-28 06:33N 51°57' E 004°00'0 0.0
2016-Apr-28 05:33N 51°57' E 004°00'0 0.0
2016-Apr-28 04:34N 51°57' E 004°00'0 0.4
2016-Apr-28 03:33N 51°58' E 004°00'2 2.0
2016-Apr-28 02:33N 51°60' E 004°01'9 9.5
2016-Apr-28 01:33N 52°02' E 003°46'1312.9
2016-Apr-28 00:33N 52°15' E 003°46'1919.2
2016-Apr-27 23:33N 52°34' E 003°52'4118.9
2016-Apr-27 21:24N 53°09' E 004°25'3418.6
2016-Apr-27 19:33N 53°35' E 005°04'2019.7
2016-Apr-27 18:33N 53°41' E 005°35'2120.8
2016-Apr-27 17:33N 53°48' E 006°08'2120.9
2016-Apr-27 16:33N 53°54' E 006°42'2020.3
2016-Apr-27 15:33N 53°57' E 007°16'1616.0
2016-Apr-27 14:33N 53°56' E 007°43'1313.3
2016-Apr-27 13:34N 53°50' E 008°04'1515.3
2016-Apr-27 12:33N 53°40' E 008°23'6 5.9
2016-Apr-27 11:32N 53°36' E 008°31'0 0.0
2016-Apr-27 10:33N 53°36' E 008°31'0 0.0
2016-Apr-27 09:31N 53°36' E 008°31'0 0.0
2016-Apr-27 08:32N 53°36' E 008°31'0 0.0
2016-Apr-27 07:32N 53°36' E 008°31'0 0.0
2016-Apr-27 06:33N 53°36' E 008°31'0 0.0
2016-Apr-27 05:31N 53°36' E 008°31'0 0.0
2016-Apr-27 04:31N 53°36' E 008°31'0 0.0
2016-Apr-27 03:32N 53°36' E 008°31'0 0.0
2016-Apr-27 02:33N 53°36' E 008°31'0 0.0
2016-Apr-27 01:33N 53°36' E 008°31'0 0.0
2016-Apr-27 00:25N 53°36' E 008°31'0 0.0
2016-Apr-26 23:32N 53°36' E 008°31'0 0.0
2016-Apr-26 22:32N 53°36' E 008°31'0 0.0
2016-Apr-26 21:33N 53°36' E 008°31'0 0.0
2016-Apr-26 20:31N 53°36' E 008°31'0 0.0
2016-Apr-26 19:31N 53°36' E 008°31'1 0.7
2016-Apr-26 18:33N 53°36' E 008°30'1212.0
2016-Apr-26 17:33N 53°44' E 008°14'1414.1
2016-Apr-26 16:34N 53°52' E 007°54'7 6.9
2016-Apr-26 15:33N 53°53' E 007°43'4 3.8
2016-Apr-26 14:34N 53°53' E 007°36'1 1.3
2016-Apr-26 13:34N 53°54' E 007°34'7 6.9
2016-Apr-26 12:33N 53°52' E 007°23'813.9
2016-Apr-26 12:00N 53°48' E 007°12'3 7.1 180 / 5999.127.0 0.5 9.8 6.6 8.6
2016-Apr-26 11:33N 53°51' E 007°10'8 8.0
2016-Apr-26 10:34N 53°51' E 006°57'8 8.0
2016-Apr-26 09:33N 53°49' E 006°44'8 7.7
2016-Apr-26 08:33N 53°47' E 006°31'7 7.1
2016-Apr-26 07:33N 53°45' E 006°19'6 6.3
2016-Apr-26 06:33N 53°43' E 006°09'2 4.1
2016-Apr-26 06:00N 53°42' E 006°06'3 7.8 360 / 7995.027.0 0.5 3.5 2.0 8.9
2016-Apr-26 05:33N 53°41' E 006°00'5 5.1
2016-Apr-26 04:34N 53°40' E 005°52'5 4.5
2016-Apr-26 03:33N 53°38' E 005°45'5 5.0
2016-Apr-26 02:34N 53°37' E 005°37'6 5.5
2016-Apr-26 01:34N 53°35' E 005°28'6 5.9
2016-Apr-26 00:34N 53°33' E 005°19'6 6.2
2016-Apr-25 23:33N 53°31' E 005°09'6 6.1
2016-Apr-25 22:33N 53°28' E 004°60'7 6.4
2016-Apr-25 21:30N 53°25' E 004°49'6 5.8
2016-Apr-25 20:33N 53°22' E 004°42'6 5.8
2016-Apr-25 19:32N 53°16' E 004°38'6 5.9
2016-Apr-25 18:32N 53°11' E 004°33'6 6.4
2016-Apr-25 17:33N 53°06' E 004°27'6 5.9
2016-Apr-25 16:33N 53°01' E 004°21'6 5.6
2016-Apr-25 15:34N 52°56' E 004°17'6 5.7
2016-Apr-25 14:34N 52°51' E 004°13'1615.9
2016-Apr-25 13:33N 52°38' E 003°57'1616.2
2016-Apr-25 12:33N 52°25' E 003°41'1616.1
2016-Apr-25 11:33N 52°11' E 003°30'1715.2
2016-Apr-25 10:25N 51°55' E 003°19'1513.2
2016-Apr-25 09:18N 51°41' E 003°13'1316.8
2016-Apr-25 08:33N 51°29' E 003°04'1312.8
2016-Apr-25 07:33N 51°24' E 003°23'1212.5
2016-Apr-25 06:34N 51°23' E 003°43'1212.1
2016-Apr-25 05:34N 51°25' E 004°02'1010.1
2016-Apr-25 04:33N 51°21' E 004°16'3 3.0
2016-Apr-25 03:32N 51°17' E 004°15'0 0.0
2016-Apr-25 02:32N 51°17' E 004°15'0 0.0
2016-Apr-25 01:30N 51°17' E 004°15'0 0.0
2016-Apr-25 00:33N 51°17' E 004°15'0 0.0
2016-Apr-24 23:31N 51°17' E 004°15'0 0.0
2016-Apr-24 22:31N 51°17' E 004°15'0 0.0
2016-Apr-24 21:32N 51°17' E 004°15'0 0.0
2016-Apr-24 20:32N 51°17' E 004°15'0 0.0
2016-Apr-24 19:32N 51°17' E 004°15'0 0.0
2016-Apr-24 18:30N 51°17' E 004°15'0 0.0
2016-Apr-24 17:34N 51°17' E 004°15'0 0.0
2016-Apr-24 16:31N 51°17' E 004°15'0 0.0
2016-Apr-24 15:31N 51°17' E 004°15'0 0.0
2016-Apr-24 14:32N 51°17' E 004°15'0 0.0
2016-Apr-24 13:32N 51°17' E 004°15'0 0.0
2016-Apr-24 12:30N 51°17' E 004°15'0 0.0
2016-Apr-24 11:33N 51°17' E 004°15'0 0.0
2016-Apr-24 10:31N 51°17' E 004°15'0 0.0
2016-Apr-24 09:31N 51°17' E 004°15'0 0.0
2016-Apr-24 08:32N 51°17' E 004°15'0 0.0
2016-Apr-24 07:32N 51°17' E 004°15'0 0.0
2016-Apr-24 06:33N 51°17' E 004°15'0 0.0
2016-Apr-24 05:33N 51°17' E 004°15'0 0.0
2016-Apr-24 04:31N 51°17' E 004°15'0 0.0
2016-Apr-24 03:33N 51°17' E 004°15'0 0.0
2016-Apr-24 02:34N 51°17' E 004°15'0 0.2
2016-Apr-24 01:33N 51°18' E 004°16'7 6.8
2016-Apr-24 00:33N 51°24' E 004°11'9 9.0
2016-Apr-23 23:34N 51°23' E 003°57'9 9.1
2016-Apr-23 22:34N 51°24' E 003°43'8 7.7
2016-Apr-23 21:34N 51°25' E 003°30'1312.7
2016-Apr-23 20:34N 51°24' E 003°10'1313.3
2016-Apr-23 19:33N 51°25' E 002°49'8 7.4
2016-Apr-23 18:28N 51°25' E 002°36'0 0.1
2016-Apr-23 17:04N 51°25' E 002°36'0 0.0
2016-Apr-23 13:30N 51°25' E 002°36'3 3.5
2016-Apr-23 12:33N 51°22' E 002°33'7 7.3
2016-Apr-23 11:33N 51°19' E 002°22'1414.1
2016-Apr-23 10:33N 51°12' E 002°03'1414.5
2016-Apr-23 09:33N 51°05' E 001°42'1414.1
2016-Apr-23 08:33N 50°55' E 001°28'1212.4
2016-Apr-23 07:33N 50°43' E 001°22'4611.2
2016-Apr-23 03:27N 50°22' E 000°18'910.4
2016-Apr-23 02:33N 50°19' E 000°04'1010.3
2016-Apr-23 01:33N 50°17' W 000°12'1110.5
2016-Apr-23 00:33N 50°14' W 000°28'1211.4
2016-Apr-22 23:31N 50°11' W 000°45'7914.8
2016-Apr-22 18:13N 49°53' W 002°44'913.7
2016-Apr-22 17:32N 49°49' W 002°58'1413.9
2016-Apr-22 16:33N 49°46' W 003°18'1713.6
2016-Apr-22 15:20N 49°45' W 003°44'1012.9
2016-Apr-22 14:33N 49°44' W 003°59'3212.3
2016-Apr-22 12:00N 49°42' W 004°48'31117.3 070 / 61020.2 1.1 0.511.011.010.6
2016-Apr-21 18:00N 49°36' W 012°48'10116.9 090 / 241021.8 2.2 1.012.010.111.2
2016-Apr-21 12:00N 49°36' W 015°24'10116.9 070 / 151018.1 5.4 1.513.0 9.011.1
2016-Apr-21 06:00N 49°30' W 018°00'19015.9 070 / 281016.0 5.4 11.810.011.6
2016-Apr-20 18:00N 49°00' W 022°48'9616.1 060 / 221019.8 5.4 3.012.5 9.611.7
2016-Apr-20 12:00N 48°42' W 025°12'30517.0 060 / 251023.3 5.4 1.512.0 7.912.1
2016-Apr-19 18:00N 47°30' W 032°36'12019.9 180 / 71021.627.0 14.710.011.9
2016-Apr-19 12:00N 46°54' W 035°24'   180 / 101024.8 5.4 14.010.213.0
Track history (hours):
 
Tides and Currents Weather Stations Pressure Air Temp Water Temp Dewpoint Dewpoint Depression Visibility Wind Speed Wind Dir Waves Ship Positions

Maersk Missouri

Owner: MAERSK LINE, LIMITED, Norfolk, VA. More information available from US FCC via Universal Licensing System and Coast Guard Vessel Documentation Center.

Last reported at 2016-Apr-29 01:33 UTC. Time now 2016-Apr-29 02:00 UTC.
Position N 51°57' E 004°00'.

Type: Cargo ship. MMSI: 369708000.

Date/timePositionNaut miles runAvg speedWind from/ knotsBaromVisibWave heightAir tempDewpointWater temp
2016-Apr-29 01:33N 51°57' E 004°00'0 0.0
2016-Apr-29 00:31N 51°57' E 004°00'0 0.0
2016-Apr-28 23:32N 51°57' E 004°00'0 0.0
2016-Apr-28 22:32N 51°57' E 004°00'0 0.0
2016-Apr-28 21:33N 51°57' E 004°00'0 0.0
2016-Apr-28 20:31N 51°57' E 004°00'0 0.0
2016-Apr-28 19:31N 51°57' E 004°00'0 0.0
2016-Apr-28 18:32N 51°57' E 004°00'0 0.0
2016-Apr-28 17:33N 51°57' E 004°00'0 0.0
2016-Apr-28 16:33N 51°57' E 004°00'0 0.0
2016-Apr-28 15:31N 51°57' E 004°00'0 0.0
2016-Apr-28 14:32N 51°57' E 004°00'0 0.0
2016-Apr-28 13:32N 51°57' E 004°00'0 0.0
2016-Apr-28 12:33N 51°57' E 004°00'0 0.0
2016-Apr-28 11:34N 51°57' E 004°00'0 0.0
2016-Apr-28 10:33N 51°57' E 004°00'0 0.0
2016-Apr-28 09:34N 51°57' E 004°00'0 0.0
2016-Apr-28 08:33N 51°57' E 004°00'0 0.0
2016-Apr-28 07:34N 51°57' E 004°00'0 0.0
2016-Apr-28 06:33N 51°57' E 004°00'0 0.0
2016-Apr-28 05:33N 51°57' E 004°00'0 0.0
2016-Apr-28 04:34N 51°57' E 004°00'0 0.4
2016-Apr-28 03:33N 51°58' E 004°00'2 2.0
2016-Apr-28 02:33N 51°60' E 004°01'9 9.5
2016-Apr-28 01:33N 52°02' E 003°46'1312.9
2016-Apr-28 00:33N 52°15' E 003°46'1919.2
2016-Apr-27 23:33N 52°34' E 003°52'4118.9
2016-Apr-27 21:24N 53°09' E 004°25'3418.6
2016-Apr-27 19:33N 53°35' E 005°04'2019.7
2016-Apr-27 18:33N 53°41' E 005°35'2120.8
2016-Apr-27 17:33N 53°48' E 006°08'2120.9
2016-Apr-27 16:33N 53°54' E 006°42'2020.3
2016-Apr-27 15:33N 53°57' E 007°16'1616.0
2016-Apr-27 14:33N 53°56' E 007°43'1313.3
2016-Apr-27 13:34N 53°50' E 008°04'1515.3
2016-Apr-27 12:33N 53°40' E 008°23'6 5.9
2016-Apr-27 11:32N 53°36' E 008°31'0 0.0
2016-Apr-27 10:33N 53°36' E 008°31'0 0.0
2016-Apr-27 09:31N 53°36' E 008°31'0 0.0
2016-Apr-27 08:32N 53°36' E 008°31'0 0.0
2016-Apr-27 07:32N 53°36' E 008°31'0 0.0
2016-Apr-27 06:33N 53°36' E 008°31'0 0.0
2016-Apr-27 05:31N 53°36' E 008°31'0 0.0
2016-Apr-27 04:31N 53°36' E 008°31'0 0.0
2016-Apr-27 03:32N 53°36' E 008°31'0 0.0
2016-Apr-27 02:33N 53°36' E 008°31'0 0.0
2016-Apr-27 01:33N 53°36' E 008°31'0 0.0
2016-Apr-27 00:25N 53°36' E 008°31'0 0.0
2016-Apr-26 23:32N 53°36' E 008°31'0 0.0
2016-Apr-26 22:32N 53°36' E 008°31'0 0.0
2016-Apr-26 21:33N 53°36' E 008°31'0 0.0
2016-Apr-26 20:31N 53°36' E 008°31'0 0.0
2016-Apr-26 19:31N 53°36' E 008°31'1 0.7
2016-Apr-26 18:33N 53°36' E 008°30'1212.0
2016-Apr-26 17:33N 53°44' E 008°14'1414.1
2016-Apr-26 16:34N 53°52' E 007°54'7 6.9
2016-Apr-26 15:33N 53°53' E 007°43'4 3.8
2016-Apr-26 14:34N 53°53' E 007°36'1 1.3
2016-Apr-26 13:34N 53°54' E 007°34'7 6.9
2016-Apr-26 12:33N 53°52' E 007°23'813.9
2016-Apr-26 12:00N 53°48' E 007°12'3 7.1 180 / 5999.127.0 0.5 9.8 6.6 8.6
2016-Apr-26 11:33N 53°51' E 007°10'8 8.0
2016-Apr-26 10:34N 53°51' E 006°57'8 8.0
2016-Apr-26 09:33N 53°49' E 006°44'8 7.7
2016-Apr-26 08:33N 53°47' E 006°31'7 7.1
2016-Apr-26 07:33N 53°45' E 006°19'6 6.3
2016-Apr-26 06:33N 53°43' E 006°09'2 4.1
2016-Apr-26 06:00N 53°42' E 006°06'3 7.8 360 / 7995.027.0 0.5 3.5 2.0 8.9
2016-Apr-26 05:33N 53°41' E 006°00'5 5.1
2016-Apr-26 04:34N 53°40' E 005°52'5 4.5
2016-Apr-26 03:33N 53°38' E 005°45'5 5.0
2016-Apr-26 02:34N 53°37' E 005°37'6 5.5
2016-Apr-26 01:34N 53°35' E 005°28'6 5.9
2016-Apr-26 00:34N 53°33' E 005°19'6 6.2
2016-Apr-25 23:33N 53°31' E 005°09'6 6.1
2016-Apr-25 22:33N 53°28' E 004°60'7 6.4
2016-Apr-25 21:30N 53°25' E 004°49'6 5.8
2016-Apr-25 20:33N 53°22' E 004°42'6 5.8
2016-Apr-25 19:32N 53°16' E 004°38'6 5.9
2016-Apr-25 18:32N 53°11' E 004°33'6 6.4
2016-Apr-25 17:33N 53°06' E 004°27'6 5.9
2016-Apr-25 16:33N 53°01' E 004°21'6 5.6
2016-Apr-25 15:34N 52°56' E 004°17'6 5.7
2016-Apr-25 14:34N 52°51' E 004°13'1615.9
2016-Apr-25 13:33N 52°38' E 003°57'1616.2
2016-Apr-25 12:33N 52°25' E 003°41'1616.1
2016-Apr-25 11:33N 52°11' E 003°30'1715.2
2016-Apr-25 10:25N 51°55' E 003°19'1513.2
2016-Apr-25 09:18N 51°41' E 003°13'1316.8
2016-Apr-25 08:33N 51°29' E 003°04'1312.8
2016-Apr-25 07:33N 51°24' E 003°23'1212.5
2016-Apr-25 06:34N 51°23' E 003°43'1212.1
2016-Apr-25 05:34N 51°25' E 004°02'1010.1
2016-Apr-25 04:33N 51°21' E 004°16'3 3.0
2016-Apr-25 03:32N 51°17' E 004°15'0 0.0
2016-Apr-25 02:32N 51°17' E 004°15'0 0.0
2016-Apr-25 01:30N 51°17' E 004°15'0 0.0
2016-Apr-25 00:33N 51°17' E 004°15'0 0.0
2016-Apr-24 23:31N 51°17' E 004°15'0 0.0
2016-Apr-24 22:31N 51°17' E 004°15'0 0.0
2016-Apr-24 21:32N 51°17' E 004°15'0 0.0
2016-Apr-24 20:32N 51°17' E 004°15'0 0.0
2016-Apr-24 19:32N 51°17' E 004°15'0 0.0
2016-Apr-24 18:30N 51°17' E 004°15'0 0.0
2016-Apr-24 17:34N 51°17' E 004°15'0 0.0
2016-Apr-24 16:31N 51°17' E 004°15'0 0.0
2016-Apr-24 15:31N 51°17' E 004°15'0 0.0
2016-Apr-24 14:32N 51°17' E 004°15'0 0.0
2016-Apr-24 13:32N 51°17' E 004°15'0 0.0
2016-Apr-24 12:30N 51°17' E 004°15'0 0.0
2016-Apr-24 11:33N 51°17' E 004°15'0 0.0
2016-Apr-24 10:31N 51°17' E 004°15'0 0.0
2016-Apr-24 09:31N 51°17' E 004°15'0 0.0
2016-Apr-24 08:32N 51°17' E 004°15'0 0.0
2016-Apr-24 07:32N 51°17' E 004°15'0 0.0
2016-Apr-24 06:33N 51°17' E 004°15'0 0.0
2016-Apr-24 05:33N 51°17' E 004°15'0 0.0
2016-Apr-24 04:31N 51°17' E 004°15'0 0.0
2016-Apr-24 03:33N 51°17' E 004°15'0 0.0
2016-Apr-24 02:34N 51°17' E 004°15'0 0.2
2016-Apr-24 01:33N 51°18' E 004°16'7 6.8
2016-Apr-24 00:33N 51°24' E 004°11'9 9.0
2016-Apr-23 23:34N 51°23' E 003°57'9 9.1
2016-Apr-23 22:34N 51°24' E 003°43'8 7.7
2016-Apr-23 21:34N 51°25' E 003°30'1312.7
2016-Apr-23 20:34N 51°24' E 003°10'1313.3
2016-Apr-23 19:33N 51°25' E 002°49'8 7.4
2016-Apr-23 18:28N 51°25' E 002°36'0 0.1
2016-Apr-23 17:04N 51°25' E 002°36'0 0.0
2016-Apr-23 13:30N 51°25' E 002°36'3 3.5
2016-Apr-23 12:33N 51°22' E 002°33'7 7.3
2016-Apr-23 11:33N 51°19' E 002°22'1414.1
2016-Apr-23 10:33N 51°12' E 002°03'1414.5
2016-Apr-23 09:33N 51°05' E 001°42'1414.1
2016-Apr-23 08:33N 50°55' E 001°28'1212.4
2016-Apr-23 07:33N 50°43' E 001°22'4611.2
2016-Apr-23 03:27N 50°22' E 000°18'910.4
2016-Apr-23 02:33N 50°19' E 000°04'1010.3
2016-Apr-23 01:33N 50°17' W 000°12'1110.5
2016-Apr-23 00:33N 50°14' W 000°28'1211.4
2016-Apr-22 23:31N 50°11' W 000°45'7914.8
2016-Apr-22 18:13N 49°53' W 002°44'913.7
2016-Apr-22 17:32N 49°49' W 002°58'1413.9
2016-Apr-22 16:33N 49°46' W 003°18'1713.6
2016-Apr-22 15:20N 49°45' W 003°44'1012.9
2016-Apr-22 14:33N 49°44' W 003°59'3212.3
2016-Apr-22 12:00N 49°42' W 004°48'31117.3 070 / 61020.2 1.1 0.511.011.010.6
2016-Apr-21 18:00N 49°36' W 012°48'10116.9 090 / 241021.8 2.2 1.012.010.111.2
2016-Apr-21 12:00N 49°36' W 015°24'10116.9 070 / 151018.1 5.4 1.513.0 9.011.1
2016-Apr-21 06:00N 49°30' W 018°00'19015.9 070 / 281016.0 5.4 11.810.011.6
2016-Apr-20 18:00N 49°00' W 022°48'9616.1 060 / 221019.8 5.4 3.012.5 9.611.7
2016-Apr-20 12:00N 48°42' W 025°12'30517.0 060 / 251023.3 5.4 1.512.0 7.912.1
2016-Apr-19 18:00N 47°30' W 032°36'12019.9 180 / 71021.627.0 14.710.011.9
2016-Apr-19 12:00N 46°54' W 035°24'   180 / 101024.8 5.4 14.010.213.0

Dump ship's entire track history